createdAt,value
2024-03-01T00:00:23.293Z,74.74
2024-03-01T00:03:16.015Z,74.97
2024-03-01T00:06:08.747Z,74.36
2024-03-01T00:09:01.298Z,74.13
2024-03-01T00:11:54.116Z,74.23
2024-03-01T00:14:46.961Z,74.57
2024-03-01T00:17:39.687Z,74.28
2024-03-01T00:20:32.609Z,74.50
2024-03-01T00:23:27.841Z,74.13
2024-03-01T00:26:21.156Z,74.09
2024-03-01T00:29:14.199Z,74.52
2024-03-01T00:32:07.179Z,74.61
2024-03-01T00:34:59.965Z,74.52
2024-03-01T00:37:53.500Z,74.64
2024-03-01T00:40:45.783Z,74.84
2024-03-01T00:43:39.360Z,74.71
2024-03-01T00:46:31.677Z,74.37
2024-03-01T00:49:24.085Z,74.11
2024-03-01T00:52:16.871Z,74.23
2024-03-01T00:55:08.971Z,74.77
2024-03-01T00:58:01.384Z,74.62
2024-03-01T01:00:53.920Z,74.95
2024-03-01T01:03:46.124Z,74.64
2024-03-01T01:06:38.892Z,74.94
2024-03-01T01:09:30.773Z,74.76
2024-03-01T01:12:22.945Z,74.61
2024-03-01T01:15:15.064Z,74.77
2024-03-01T01:18:07.960Z,75.00
2024-03-01T01:21:00.085Z,75.18
2024-03-01T01:23:53.210Z,74.70
2024-03-01T01:26:45.883Z,75.23
2024-03-01T01:29:38.085Z,74.98
2024-03-01T01:32:29.963Z,75.01
2024-03-01T01:35:22.066Z,74.73
2024-03-01T01:38:14.045Z,75.10
2024-03-01T01:41:07.125Z,74.99
2024-03-01T01:44:00.173Z,75.26
2024-03-01T01:46:53.563Z,74.95
2024-03-01T01:49:46.473Z,75.67
2024-03-01T01:52:39.704Z,75.23
2024-03-01T01:55:33.446Z,75.96
2024-03-01T01:58:26.254Z,75.82
2024-03-01T02:01:19.968Z,75.72
2024-03-01T02:04:11.964Z,75.50
2024-03-01T02:07:05.629Z,75.29
2024-03-01T02:09:58.120Z,75.40
2024-03-01T02:12:57.306Z,75.45
2024-03-01T02:15:50.218Z,75.78
2024-03-01T02:18:42.876Z,75.59
2024-03-01T02:21:37.652Z,75.47
2024-03-01T02:24:30.184Z,75.35
2024-03-01T02:27:22.116Z,75.63
2024-03-01T02:30:15.360Z,75.54
2024-03-01T02:33:08.382Z,75.61
2024-03-01T02:36:01.305Z,75.47
2024-03-01T02:38:54.193Z,75.04
2024-03-01T02:41:50.315Z,75.08
2024-03-01T02:44:43.360Z,75.30
2024-03-01T02:47:36.505Z,75.37
2024-03-01T02:50:29.331Z,75.52
2024-03-01T02:53:22.284Z,75.09
2024-03-01T02:56:15.237Z,75.30
2024-03-01T02:59:06.991Z,75.56
2024-03-01T03:02:00.065Z,75.60
2024-03-01T03:04:54.488Z,76.00
2024-03-01T03:07:48.408Z,75.82
2024-03-01T03:10:41.605Z,75.30
2024-03-01T03:13:34.471Z,75.02
2024-03-01T03:16:27.230Z,75.52
2024-03-01T03:19:20.342Z,75.33
2024-03-01T03:22:13.057Z,75.38
2024-03-01T03:25:06.337Z,75.42
2024-03-01T03:27:59.062Z,75.90
2024-03-01T03:30:50.956Z,75.76
2024-03-01T03:33:43.188Z,75.30
2024-03-01T03:36:35.218Z,75.35
2024-03-01T03:39:27.101Z,75.35
2024-03-01T03:42:19.107Z,75.39
2024-03-01T03:45:12.081Z,76.18
2024-03-01T03:48:05.824Z,75.65
2024-03-01T03:50:58.429Z,75.85
2024-03-01T03:53:51.307Z,76.32
2024-03-01T03:56:46.352Z,76.21
2024-03-01T03:59:38.318Z,76.04
2024-03-01T04:02:30.794Z,76.58
2024-03-01T04:05:23.193Z,76.52
2024-03-01T04:08:15.353Z,77.04
2024-03-01T04:11:08.112Z,76.97
2024-03-01T04:14:00.314Z,77.12
2024-03-01T04:16:52.380Z,77.04
2024-03-01T04:19:44.263Z,76.40
2024-03-01T04:22:36.421Z,76.44
2024-03-01T04:25:29.516Z,75.69
2024-03-01T04:28:23.373Z,75.87
2024-03-01T04:31:16.552Z,76.38
2024-03-01T04:34:09.554Z,76.07
2024-03-01T04:37:02.636Z,75.93
2024-03-01T04:39:55.733Z,75.80
2024-03-01T04:42:48.640Z,76.07
2024-03-01T04:45:41.298Z,76.18
2024-03-01T04:48:33.517Z,76.86
2024-03-01T04:51:26.597Z,76.56
2024-03-01T04:54:19.269Z,76.92
2024-03-01T04:57:11.573Z,76.81
2024-03-01T05:00:13.278Z,76.36
2024-03-01T05:03:08.882Z,77.01
2024-03-01T05:06:04.503Z,76.93
2024-03-01T05:08:57.868Z,76.05
2024-03-01T05:11:50.610Z,76.85
2024-03-01T05:14:43.769Z,76.55
2024-03-01T05:17:40.287Z,76.63
2024-03-01T05:20:32.363Z,76.07
2024-03-01T05:23:24.426Z,76.45
2024-03-01T05:26:16.824Z,75.80
2024-03-01T05:29:09.517Z,75.81
2024-03-01T05:32:01.654Z,76.32
2024-03-01T05:34:54.465Z,76.58
2024-03-01T05:37:47.332Z,76.49
2024-03-01T05:40:46.734Z,76.17
2024-03-01T05:43:44.778Z,76.14
2024-03-01T05:46:37.676Z,76.02
2024-03-01T05:49:30.556Z,76.24
2024-03-01T05:52:22.629Z,76.43
2024-03-01T05:55:14.625Z,76.20
2024-03-01T05:58:07.493Z,76.09
2024-03-01T06:01:00.876Z,76.53
2024-03-01T06:03:53.554Z,76.50
2024-03-01T06:06:45.670Z,76.50
2024-03-01T06:09:39.422Z,76.08
2024-03-01T06:12:31.539Z,76.13
2024-03-01T06:15:23.374Z,76.45
2024-03-01T06:18:15.627Z,76.43
2024-03-01T06:21:07.527Z,76.27
2024-03-01T06:23:59.774Z,76.49
2024-03-01T06:26:55.754Z,76.49
2024-03-01T06:29:50.044Z,76.74
2024-03-01T06:32:44.492Z,76.07
2024-03-01T06:35:37.062Z,76.26
2024-03-01T06:38:29.571Z,76.03
2024-03-01T06:41:21.669Z,76.09
2024-03-01T06:44:15.099Z,76.12
2024-03-01T06:47:14.878Z,76.61
2024-03-01T06:50:10.264Z,76.49
2024-03-01T06:53:02.984Z,76.67
2024-03-01T06:55:56.372Z,76.77
2024-03-01T06:58:49.406Z,76.48
2024-03-01T07:01:41.771Z,76.33
2024-03-01T07:04:33.840Z,76.37
2024-03-01T07:07:26.541Z,76.57
2024-03-01T07:10:18.794Z,76.49
2024-03-01T07:13:11.567Z,75.84
2024-03-01T07:16:03.861Z,75.98
2024-03-01T07:18:56.829Z,76.09
2024-03-01T07:21:49.842Z,76.31
2024-03-01T07:24:42.006Z,75.85
2024-03-01T07:27:35.510Z,75.80
2024-03-01T07:30:28.218Z,75.59
2024-03-01T07:33:21.507Z,75.66
2024-03-01T07:36:14.054Z,75.54
2024-03-01T07:39:06.878Z,75.47
2024-03-01T07:42:00.327Z,75.31
2024-03-01T07:44:57.030Z,75.61
2024-03-01T07:47:49.908Z,75.33
2024-03-01T07:50:43.048Z,75.11
2024-03-01T07:53:35.923Z,74.94
2024-03-01T07:56:28.774Z,75.04
2024-03-01T07:59:20.746Z,75.12
2024-03-01T08:02:13.058Z,74.82
2024-03-01T08:05:07.741Z,75.04
2024-03-01T08:07:59.844Z,74.71
2024-03-01T08:10:51.782Z,74.29
2024-03-01T08:13:43.730Z,74.43
2024-03-01T08:16:36.282Z,73.95
2024-03-01T08:19:37.620Z,73.64
2024-03-01T08:22:30.055Z,73.50
2024-03-01T08:25:22.968Z,73.22
2024-03-01T08:28:27.326Z,72.62
2024-03-01T08:31:29.705Z,72.94
2024-03-01T08:34:25.785Z,72.47
2024-03-01T08:37:25.452Z,72.48
2024-03-01T08:40:53.105Z,71.63
2024-03-01T08:43:45.886Z,72.06
2024-03-01T08:46:38.017Z,71.76
2024-03-01T08:49:54.686Z,70.92
2024-03-01T08:52:49.101Z,71.21
2024-03-01T08:55:45.147Z,70.60
2024-03-01T08:58:39.403Z,70.65
2024-03-01T09:01:47.385Z,70.44
2024-03-01T09:04:39.952Z,70.15
2024-03-01T09:07:33.177Z,69.68
2024-03-01T09:10:30.560Z,69.06
2024-03-01T09:13:26.229Z,69.76
2024-03-01T09:16:20.619Z,69.08
2024-03-01T09:19:23.014Z,68.63
2024-03-01T09:22:17.641Z,68.57
2024-03-01T09:25:47.586Z,66.58
2024-03-01T09:28:40.156Z,67.65
2024-03-01T09:31:34.320Z,67.42
2024-03-01T09:34:35.627Z,67.29
2024-03-01T09:37:28.432Z,67.55
2024-03-01T09:40:39.361Z,66.03
2024-03-01T09:44:03.732Z,65.67
2024-03-01T09:47:39.140Z,66.54
2024-03-01T09:50:55.649Z,66.43
2024-03-01T09:54:03.265Z,65.93
2024-03-01T09:57:18.753Z,64.99
2024-03-01T10:00:24.018Z,64.79
2024-03-01T10:03:34.528Z,63.22
2024-03-01T10:07:13.414Z,61.96
2024-03-01T10:10:27.300Z,63.52
2024-03-01T10:13:44.379Z,62.80
2024-03-01T10:17:14.283Z,63.72
2024-03-01T10:20:22.678Z,62.45
2024-03-01T10:23:40.117Z,62.47
2024-03-01T10:26:34.802Z,63.62
2024-03-01T10:29:45.948Z,63.08
2024-03-01T10:32:54.674Z,62.83
2024-03-01T10:36:26.347Z,61.88
2024-03-01T10:39:31.187Z,62.79
2024-03-01T10:42:27.457Z,63.18
2024-03-01T10:46:01.594Z,61.23
2024-03-01T10:48:59.946Z,61.89
2024-03-01T10:52:12.038Z,61.11
2024-03-01T10:55:11.753Z,61.50
2024-03-01T10:58:46.194Z,59.06
2024-03-01T11:02:02.092Z,58.54
2024-03-01T11:05:08.100Z,58.85
2024-03-01T11:08:38.597Z,57.04
2024-03-01T11:11:49.706Z,58.33
2024-03-01T11:14:53.441Z,58.20
2024-03-01T11:17:51.376Z,59.20
2024-03-01T11:20:54.372Z,58.94
2024-03-01T11:24:00.701Z,58.16
2024-03-01T11:26:56.992Z,58.91
2024-03-01T11:30:00.708Z,57.28
2024-03-01T11:33:02.347Z,57.40
2024-03-01T11:36:35.623Z,56.70
2024-03-01T11:39:57.704Z,53.55
2024-03-01T11:43:12.432Z,57.32
2024-03-01T11:46:27.697Z,55.09
2024-03-01T11:49:35.005Z,54.85
2024-03-01T11:53:10.672Z,53.65
2024-03-01T11:56:20.596Z,55.22
2024-03-01T11:59:49.487Z,54.01
2024-03-01T12:03:09.426Z,53.14
2024-03-01T12:06:07.041Z,55.11
2024-03-01T12:09:17.554Z,56.29
2024-03-01T12:12:45.818Z,54.65
2024-03-01T12:16:13.296Z,53.58
2024-03-01T12:19:21.002Z,53.69
2024-03-01T12:22:48.792Z,52.80
2024-03-01T12:25:41.651Z,55.64
2024-03-01T12:29:30.495Z,53.13
2024-03-01T12:33:07.484Z,52.28
2024-03-01T12:36:22.934Z,54.09
2024-03-01T12:39:22.016Z,55.24
2024-03-01T12:42:34.602Z,54.52
2024-03-01T12:46:26.306Z,51.77
2024-03-01T12:50:06.694Z,51.80
2024-03-01T12:53:33.148Z,51.37
2024-03-01T12:56:49.197Z,51.18
2024-03-01T13:00:16.841Z,51.95
2024-03-01T13:03:39.719Z,53.96
2024-03-01T13:06:35.105Z,54.55
2024-03-01T13:09:35.212Z,53.96
2024-03-01T13:12:29.158Z,53.26
2024-03-01T13:15:26.768Z,53.61
2024-03-01T13:18:32.101Z,53.22
2024-03-01T13:21:59.751Z,51.29
2024-03-01T13:25:01.144Z,51.85
2024-03-01T13:28:03.286Z,51.45
2024-03-01T13:31:06.434Z,52.00
2024-03-01T13:34:00.624Z,52.45
2024-03-01T13:37:36.398Z,53.67
2024-03-01T13:40:41.689Z,53.25
2024-03-01T13:43:38.760Z,53.36
2024-03-01T13:46:40.923Z,52.92
2024-03-01T13:49:41.436Z,52.87
2024-03-01T13:52:40.588Z,53.42
2024-03-01T13:55:38.688Z,53.32
2024-03-01T13:58:33.834Z,54.00
2024-03-01T14:01:28.849Z,52.61
2024-03-01T14:04:21.841Z,53.78
2024-03-01T14:07:16.483Z,53.91
2024-03-01T14:10:10.116Z,54.10
2024-03-01T14:13:04.750Z,54.02
2024-03-01T14:16:08.647Z,53.30
2024-03-01T14:19:01.780Z,54.39
2024-03-01T14:21:55.017Z,54.13
2024-03-01T14:24:47.589Z,54.72
2024-03-01T14:27:40.982Z,54.91
2024-03-01T14:30:33.993Z,54.85
2024-03-01T14:33:28.388Z,53.62
2024-03-01T14:36:20.746Z,54.86
2024-03-01T14:39:15.216Z,54.75
2024-03-01T14:42:22.746Z,53.87
2024-03-01T14:45:15.317Z,54.76
2024-03-01T14:48:10.153Z,54.33
2024-03-01T14:51:11.017Z,54.52
2024-03-01T14:54:03.539Z,54.23
2024-03-01T14:56:56.296Z,54.31
2024-03-01T14:59:48.732Z,54.24
2024-03-01T15:02:41.373Z,54.06
2024-03-01T15:05:36.646Z,53.91
2024-03-01T15:08:32.810Z,54.30
2024-03-01T15:11:28.428Z,53.93
2024-03-01T15:14:24.988Z,52.20
2024-03-01T15:17:20.001Z,54.41
2024-03-01T15:20:13.321Z,53.82
2024-03-01T15:23:07.038Z,54.60
2024-03-01T15:26:07.604Z,54.10
2024-03-01T15:28:59.891Z,54.59
2024-03-01T15:31:53.451Z,54.37
2024-03-01T15:34:45.935Z,54.82
2024-03-01T15:37:40.115Z,54.86
2024-03-01T15:40:36.850Z,54.59
2024-03-01T15:43:28.921Z,54.94
2024-03-01T15:46:26.824Z,54.85
2024-03-01T15:49:18.912Z,55.20
2024-03-01T15:52:10.976Z,55.35
2024-03-01T15:55:06.784Z,55.45
2024-03-01T15:57:59.174Z,55.49
2024-03-01T16:00:51.968Z,55.43
2024-03-01T16:03:45.573Z,55.49
2024-03-01T16:06:39.263Z,55.95
2024-03-01T16:09:39.776Z,55.74
2024-03-01T16:12:31.581Z,55.86
2024-03-01T16:15:26.099Z,56.03
2024-03-01T16:18:19.385Z,56.01
2024-03-01T16:21:12.766Z,56.11
2024-03-01T16:24:07.019Z,56.17
2024-03-01T16:27:01.257Z,56.04
2024-03-01T16:29:53.943Z,56.29
2024-03-01T16:32:46.937Z,56.63
2024-03-01T16:35:43.990Z,56.34
2024-03-01T16:38:42.293Z,56.54
2024-03-01T16:41:40.573Z,56.50
2024-03-01T16:44:40.654Z,56.60
2024-03-01T16:47:36.524Z,56.69
2024-03-01T16:50:29.619Z,56.87
2024-03-01T16:53:21.785Z,56.67
2024-03-01T16:56:14.303Z,56.69
2024-03-01T16:59:08.693Z,56.67
2024-03-01T17:02:01.904Z,56.94
2024-03-01T17:04:54.824Z,56.74
2024-03-01T17:07:49.527Z,56.74
2024-03-01T17:10:43.015Z,56.84
2024-03-01T17:13:35.924Z,57.04
2024-03-01T17:16:33.450Z,57.01
2024-03-01T17:19:26.278Z,57.27
2024-03-01T17:22:19.551Z,57.20
2024-03-01T17:25:12.155Z,57.27
2024-03-01T17:28:05.333Z,57.35
2024-03-01T17:30:57.763Z,57.17
2024-03-01T17:33:50.465Z,57.44
2024-03-01T17:36:43.039Z,57.48
2024-03-01T17:39:35.011Z,57.54
2024-03-01T17:42:27.038Z,57.63
2024-03-01T17:45:20.292Z,57.84
2024-03-01T17:48:13.404Z,57.68
2024-03-01T17:51:06.511Z,57.98
2024-03-01T17:54:00.818Z,57.98
2024-03-01T17:56:53.063Z,58.20
2024-03-01T17:59:45.046Z,58.45
2024-03-01T18:02:37.233Z,58.58
2024-03-01T18:05:29.447Z,58.38
2024-03-01T18:08:22.414Z,58.69
2024-03-01T18:11:15.235Z,58.73
2024-03-01T18:14:09.043Z,58.51
2024-03-01T18:17:01.164Z,58.60
2024-03-01T18:19:58.356Z,58.40
2024-03-01T18:22:51.432Z,58.84
2024-03-01T18:25:44.423Z,59.17
2024-03-01T18:28:38.432Z,59.00
2024-03-01T18:31:31.327Z,59.04
2024-03-01T18:34:24.763Z,59.13
2024-03-01T18:37:18.454Z,59.10
2024-03-01T18:40:11.272Z,59.27
2024-03-01T18:43:03.280Z,58.98
2024-03-01T18:45:55.066Z,59.33
2024-03-01T18:48:47.271Z,59.30
2024-03-01T18:51:39.607Z,59.41
2024-03-01T18:54:34.048Z,59.59
2024-03-01T18:57:25.973Z,59.39
2024-03-01T19:00:18.827Z,59.35
2024-03-01T19:03:12.145Z,59.79
2024-03-01T19:06:04.695Z,59.48
2024-03-01T19:08:57.225Z,59.36
2024-03-01T19:11:52.090Z,59.26
2024-03-01T19:14:44.377Z,59.70
2024-03-01T19:17:38.020Z,59.71
2024-03-01T19:20:31.249Z,59.47
2024-03-01T19:23:23.270Z,59.93
2024-03-01T19:26:16.353Z,59.07
2024-03-01T19:29:09.655Z,59.87
2024-03-01T19:32:02.903Z,60.00
2024-03-01T19:34:55.202Z,60.05
2024-03-01T19:37:48.113Z,60.15
2024-03-01T19:40:40.488Z,59.97
2024-03-01T19:43:33.539Z,60.24
2024-03-01T19:46:26.388Z,60.07
2024-03-01T19:49:20.094Z,60.38
2024-03-01T19:52:15.628Z,60.09
2024-03-01T19:55:08.608Z,60.11
2024-03-01T19:58:01.284Z,60.31
2024-03-01T20:00:53.348Z,60.24
2024-03-01T20:03:45.622Z,60.13
2024-03-01T20:06:38.561Z,60.46
2024-03-01T20:09:31.932Z,60.46
2024-03-01T20:12:24.321Z,60.56
2024-03-01T20:15:16.882Z,60.66
2024-03-01T20:18:09.499Z,60.62
2024-03-01T20:21:06.705Z,60.81
2024-03-01T20:23:59.779Z,61.02
2024-03-01T20:26:53.295Z,60.70
2024-03-01T20:29:45.675Z,61.17
2024-03-01T20:32:38.437Z,61.26
2024-03-01T20:35:30.416Z,61.37
2024-03-01T20:38:22.579Z,61.79
2024-03-01T20:41:15.297Z,61.60
2024-03-01T20:44:07.322Z,61.40
2024-03-01T20:46:59.539Z,61.45
2024-03-01T20:49:51.342Z,61.75
2024-03-01T20:52:43.687Z,61.88
2024-03-01T20:55:38.990Z,61.63
2024-03-01T20:58:31.666Z,61.51
2024-03-01T21:01:24.435Z,61.82
2024-03-01T21:04:16.661Z,62.23
2024-03-01T21:07:09.588Z,61.92
2024-03-01T21:10:07.000Z,61.77
2024-03-01T21:12:59.644Z,62.15
2024-03-01T21:15:51.627Z,61.94
2024-03-01T21:18:43.553Z,62.25
2024-03-01T21:24:32.549Z,62.47
2024-03-01T21:27:24.834Z,63.16
2024-03-01T21:30:18.607Z,62.57
2024-03-01T21:33:10.713Z,62.71
2024-03-01T21:36:04.046Z,62.76
2024-03-01T21:38:56.592Z,64.25
2024-03-01T21:41:48.582Z,63.85
2024-03-01T21:44:43.811Z,63.95
2024-03-01T21:47:36.814Z,64.57
2024-03-01T21:50:29.764Z,63.89
2024-03-01T21:53:22.305Z,64.24
2024-03-01T21:56:14.777Z,64.17
2024-03-01T21:59:07.933Z,65.02
2024-03-01T22:02:02.483Z,65.16
2024-03-01T22:04:59.690Z,65.30
2024-03-01T22:08:02.371Z,64.58
2024-03-01T22:10:59.609Z,64.96
2024-03-01T22:13:51.641Z,64.93
2024-03-01T22:16:43.692Z,65.01
2024-03-01T22:19:35.738Z,64.83
2024-03-01T22:22:28.536Z,64.79
2024-03-01T22:25:20.874Z,64.69
2024-03-01T22:28:14.998Z,64.87
2024-03-01T22:31:07.696Z,64.75
2024-03-01T22:34:00.217Z,64.63
2024-03-01T22:36:53.301Z,65.11
2024-03-01T22:39:50.065Z,64.69
2024-03-01T22:42:45.653Z,64.73
2024-03-01T22:45:37.986Z,64.87
2024-03-01T22:48:32.150Z,64.62
2024-03-01T22:51:24.962Z,64.85
2024-03-01T22:54:25.250Z,64.57
2024-03-01T22:57:26.659Z,64.88
2024-03-01T23:00:20.711Z,64.90
2024-03-01T23:03:18.615Z,65.23
2024-03-01T23:06:16.682Z,65.42
2024-03-01T23:09:19.035Z,65.12
2024-03-01T23:12:12.716Z,64.49
2024-03-01T23:15:05.589Z,64.64
2024-03-01T23:17:57.846Z,64.96
2024-03-01T23:20:50.383Z,65.31
2024-03-01T23:23:43.381Z,65.14
2024-03-01T23:26:35.718Z,64.80
2024-03-01T23:29:27.567Z,64.79
2024-03-01T23:32:19.637Z,64.99
2024-03-01T23:35:11.716Z,64.71
2024-03-01T23:38:04.024Z,64.79
2024-03-01T23:40:57.382Z,64.14
2024-03-01T23:43:50.089Z,64.23
2024-03-01T23:46:43.077Z,64.50
2024-03-01T23:49:35.805Z,64.28
2024-03-01T23:52:28.739Z,64.35
2024-03-01T23:55:22.295Z,64.53
2024-03-01T23:58:15.177Z,64.53
